createdAt,value
2023-02-16T00:00:38.436Z,97.40
2023-02-16T00:03:05.032Z,97.06
2023-02-16T00:05:34.900Z,96.62
2023-02-16T00:08:02.177Z,96.86
2023-02-16T00:10:35.233Z,96.88
2023-02-16T00:13:24.604Z,96.69
2023-02-16T00:15:51.216Z,97.12
2023-02-16T00:18:20.775Z,97.27
2023-02-16T00:20:49.085Z,97.76
2023-02-16T00:23:15.744Z,99.02
2023-02-16T00:25:42.372Z,99.36
2023-02-16T00:28:15.945Z,99.81
2023-02-16T00:30:42.560Z,100.00
2023-02-16T00:33:20.868Z,99.75
2023-02-16T00:35:48.203Z,99.88
2023-02-16T00:38:15.020Z,99.85
2023-02-16T00:40:42.633Z,99.45
2023-02-16T00:43:22.721Z,98.61
2023-02-16T00:45:49.427Z,99.50
2023-02-16T00:48:16.308Z,100.00
2023-02-16T00:50:42.878Z,100.00
2023-02-16T00:53:10.499Z,100.00
2023-02-16T00:55:38.798Z,100.00
2023-02-16T00:58:30.567Z,99.39
2023-02-16T01:01:09.789Z,99.75
2023-02-16T01:03:37.421Z,99.54
2023-02-16T01:06:22.585Z,99.88
2023-02-16T01:09:07.401Z,99.55
2023-02-16T01:11:34.155Z,100.00
2023-02-16T01:14:00.803Z,99.65
2023-02-16T01:16:38.569Z,99.42
2023-02-16T01:19:05.716Z,99.76
2023-02-16T01:21:33.522Z,99.43
2023-02-16T01:24:00.708Z,99.59
2023-02-16T01:26:27.426Z,99.96
2023-02-16T01:28:53.987Z,100.00
2023-02-16T01:31:20.664Z,100.00
2023-02-16T01:33:47.338Z,99.21
2023-02-16T01:36:26.902Z,98.52
2023-02-16T01:38:53.510Z,97.50
2023-02-16T01:41:57.552Z,98.41
2023-02-16T01:44:39.057Z,98.34
2023-02-16T01:47:13.009Z,99.51
2023-02-16T01:49:39.721Z,100.00
2023-02-16T01:52:19.355Z,100.00
2023-02-16T01:54:52.518Z,99.74
2023-02-16T01:57:39.708Z,99.80
2023-02-16T02:00:16.173Z,99.09
2023-02-16T02:02:54.836Z,98.78
2023-02-16T02:05:37.616Z,98.29
2023-02-16T02:08:16.185Z,98.01
2023-02-16T02:11:06.228Z,99.31
2023-02-16T02:13:38.045Z,99.82
2023-02-16T02:16:06.141Z,98.94
2023-02-16T02:18:33.316Z,98.50
2023-02-16T02:21:21.259Z,99.11
2023-02-16T02:24:25.029Z,99.35
2023-02-16T02:27:09.848Z,100.00
2023-02-16T02:29:59.863Z,100.00
2023-02-16T02:33:03.331Z,99.71
2023-02-16T02:35:51.294Z,99.33
2023-02-16T02:38:53.590Z,100.00
2023-02-16T02:41:49.180Z,100.00
2023-02-16T02:44:20.962Z,99.99
2023-02-16T02:46:48.788Z,100.00
2023-02-16T02:49:15.674Z,100.00
2023-02-16T02:51:42.196Z,100.00
2023-02-16T02:54:30.025Z,100.00
2023-02-16T02:57:17.543Z,100.00
2023-02-16T03:00:09.442Z,100.00
2023-02-16T03:02:37.286Z,99.77
2023-02-16T03:05:06.991Z,99.78
2023-02-16T03:07:47.889Z,100.00
2023-02-16T03:10:42.452Z,100.00
2023-02-16T03:13:25.960Z,100.00
2023-02-16T03:15:57.083Z,100.00
2023-02-16T03:18:44.870Z,100.00
2023-02-16T03:21:33.216Z,100.00
2023-02-16T03:24:21.603Z,100.00
2023-02-16T03:27:09.365Z,100.00
2023-02-16T03:29:38.478Z,100.00
2023-02-16T03:32:06.375Z,100.00
2023-02-16T03:34:36.267Z,99.11
2023-02-16T03:37:05.556Z,97.35
2023-02-16T03:39:32.724Z,97.17
2023-02-16T03:41:59.339Z,97.73
2023-02-16T03:44:25.970Z,97.50
2023-02-16T03:46:53.749Z,99.19
2023-02-16T03:49:21.465Z,100.00
2023-02-16T03:51:48.070Z,100.00
2023-02-16T03:54:14.688Z,99.60
2023-02-16T03:56:41.336Z,99.39
2023-02-16T03:59:08.050Z,99.42
2023-02-16T04:01:34.669Z,100.00
2023-02-16T04:04:01.298Z,99.77
2023-02-16T04:06:27.922Z,100.00
2023-02-16T04:08:54.750Z,100.00
2023-02-16T04:11:39.931Z,99.32
2023-02-16T04:14:06.564Z,99.27
2023-02-16T04:16:33.254Z,98.80
2023-02-16T04:18:59.868Z,98.10
2023-02-16T04:21:26.521Z,97.76
2023-02-16T04:23:53.149Z,96.74
2023-02-16T04:26:19.710Z,97.22
2023-02-16T04:28:46.396Z,97.09
2023-02-16T04:31:13.192Z,97.41
2023-02-16T04:33:40.020Z,97.84
2023-02-16T04:36:07.042Z,98.76
2023-02-16T04:38:33.592Z,99.33
2023-02-16T04:41:00.317Z,100.00
2023-02-16T04:43:27.018Z,100.00
2023-02-16T04:45:53.594Z,100.00
2023-02-16T04:48:20.183Z,100.00
2023-02-16T04:50:46.746Z,100.00
2023-02-16T04:53:13.374Z,100.00
2023-02-16T04:55:39.947Z,100.00
2023-02-16T04:58:06.566Z,100.00
2023-02-16T05:00:35.658Z,100.00
2023-02-16T05:03:03.127Z,100.00
2023-02-16T05:05:29.792Z,100.00
2023-02-16T05:07:56.349Z,100.00
2023-02-16T05:10:22.914Z,100.00
2023-02-16T05:13:08.036Z,99.55
2023-02-16T05:15:35.502Z,97.75
2023-02-16T05:18:02.166Z,96.92
2023-02-16T05:20:47.299Z,97.17
2023-02-16T05:23:13.830Z,96.63
2023-02-16T05:25:40.407Z,97.40
2023-02-16T05:28:07.008Z,98.74
2023-02-16T05:30:33.875Z,99.50
2023-02-16T05:33:00.538Z,99.85
2023-02-16T05:35:27.832Z,100.00
2023-02-16T05:37:54.373Z,100.00
2023-02-16T05:40:21.006Z,100.00
2023-02-16T05:42:47.558Z,100.00
2023-02-16T05:45:14.109Z,100.00
2023-02-16T05:47:40.624Z,100.00
2023-02-16T05:50:07.952Z,100.00
2023-02-16T05:52:34.485Z,100.00
2023-02-16T05:55:01.049Z,99.20
2023-02-16T05:57:27.600Z,98.48
2023-02-16T05:59:54.159Z,98.10
2023-02-16T06:02:20.806Z,97.83
2023-02-16T06:04:47.427Z,97.51
2023-02-16T06:07:15.022Z,97.26
2023-02-16T06:09:41.712Z,96.62
2023-02-16T06:12:08.354Z,96.67
2023-02-16T06:14:34.948Z,98.27
2023-02-16T06:17:01.591Z,98.43
2023-02-16T06:19:28.189Z,98.22
2023-02-16T06:21:54.804Z,98.09
2023-02-16T06:24:21.404Z,98.36
2023-02-16T06:26:47.952Z,98.87
2023-02-16T06:29:14.538Z,99.23
2023-02-16T06:31:41.247Z,99.37
2023-02-16T06:34:08.036Z,99.67
2023-02-16T06:36:34.672Z,99.60
2023-02-16T06:39:01.372Z,99.47
2023-02-16T06:41:40.063Z,100.00
2023-02-16T06:44:09.438Z,100.00
2023-02-16T06:46:36.205Z,100.00
2023-02-16T06:49:02.893Z,100.00
2023-02-16T06:51:29.835Z,100.00
2023-02-16T06:53:56.565Z,100.00
2023-02-16T06:56:23.558Z,100.00
2023-02-16T06:58:50.363Z,100.00
2023-02-16T07:01:22.985Z,100.00
2023-02-16T07:03:51.073Z,100.00
2023-02-16T07:06:18.398Z,100.00
2023-02-16T07:08:45.511Z,100.00
2023-02-16T07:11:12.585Z,100.00
2023-02-16T07:13:39.289Z,100.00
2023-02-16T07:16:07.549Z,100.00
2023-02-16T07:18:34.411Z,100.00
2023-02-16T07:21:01.303Z,100.00
2023-02-16T07:23:28.047Z,100.00
2023-02-16T07:25:54.683Z,100.00
2023-02-16T07:28:21.228Z,100.00
2023-02-16T07:30:47.868Z,100.00
2023-02-16T07:33:18.859Z,100.00
2023-02-16T07:35:45.448Z,100.00
2023-02-16T07:38:12.300Z,100.00
2023-02-16T07:40:39.124Z,100.00
2023-02-16T07:43:06.590Z,100.00
2023-02-16T07:45:34.018Z,100.00
2023-02-16T07:48:02.181Z,100.00
2023-02-16T07:50:28.768Z,100.00
2023-02-16T07:52:55.400Z,100.00
2023-02-16T07:55:22.026Z,100.00
2023-02-16T07:57:49.544Z,100.00
2023-02-16T08:00:16.635Z,100.00
2023-02-16T08:02:43.308Z,100.00
2023-02-16T08:05:10.065Z,100.00
2023-02-16T08:07:36.663Z,100.00
2023-02-16T08:10:03.264Z,100.00
2023-02-16T08:12:29.815Z,100.00
2023-02-16T08:14:56.407Z,100.00
2023-02-16T08:17:23.078Z,100.00
2023-02-16T08:19:50.406Z,99.80
2023-02-16T08:22:18.354Z,99.95
2023-02-16T08:24:45.113Z,99.54
2023-02-16T08:27:11.740Z,99.31
2023-02-16T08:29:38.508Z,98.00
2023-02-16T08:32:07.859Z,96.03
2023-02-16T08:34:35.511Z,95.31
2023-02-16T08:37:02.411Z,95.17
2023-02-16T08:39:31.400Z,95.06
2023-02-16T08:41:58.362Z,94.19
2023-02-16T08:44:25.918Z,91.22
2023-02-16T08:46:55.067Z,91.10
2023-02-16T08:49:24.108Z,90.96
2023-02-16T08:51:54.743Z,90.95
2023-02-16T08:54:33.325Z,87.33
2023-02-16T08:57:02.760Z,86.86
2023-02-16T08:59:29.862Z,85.53
2023-02-16T09:01:58.169Z,85.85
2023-02-16T09:04:25.834Z,83.94
2023-02-16T09:06:53.364Z,82.26
2023-02-16T09:09:20.654Z,81.49
2023-02-16T09:11:48.157Z,81.62
2023-02-16T09:14:17.269Z,79.15
2023-02-16T09:16:45.801Z,79.29
2023-02-16T09:19:19.315Z,76.75
2023-02-16T09:21:47.354Z,76.07
2023-02-16T09:24:13.960Z,74.99
2023-02-16T09:26:42.954Z,75.72
2023-02-16T09:29:12.400Z,73.12
2023-02-16T09:31:39.736Z,74.65
2023-02-16T09:34:17.889Z,72.62
2023-02-16T09:36:45.281Z,70.88
2023-02-16T09:39:12.335Z,72.82
2023-02-16T09:41:57.106Z,73.95
2023-02-16T09:44:42.252Z,70.81
2023-02-16T09:47:26.004Z,72.26
2023-02-16T09:49:56.890Z,72.46
2023-02-16T09:52:37.782Z,72.72
2023-02-16T09:55:16.330Z,70.48
2023-02-16T09:57:58.410Z,63.87
2023-02-16T10:00:33.867Z,60.00
2023-02-16T10:03:29.308Z,60.90
2023-02-16T10:05:56.955Z,54.47
2023-02-16T10:08:31.290Z,57.66
2023-02-16T10:11:32.332Z,54.22
2023-02-16T10:14:06.454Z,52.13
2023-02-16T10:16:39.629Z,51.04
2023-02-16T10:19:21.469Z,48.79
2023-02-16T10:21:53.355Z,45.40
2023-02-16T10:24:20.446Z,46.16
2023-02-16T10:26:59.728Z,45.74
2023-02-16T10:29:26.971Z,42.44
2023-02-16T10:31:59.372Z,42.29
2023-02-16T10:34:50.386Z,40.38
2023-02-16T10:37:47.449Z,41.79
2023-02-16T10:40:30.228Z,39.68
2023-02-16T10:43:07.341Z,40.33
2023-02-16T10:45:55.259Z,38.72
2023-02-16T10:48:23.450Z,39.53
2023-02-16T10:50:50.133Z,36.26
2023-02-16T10:53:21.874Z,35.69
2023-02-16T10:55:48.412Z,36.80
2023-02-16T10:58:24.416Z,38.28
2023-02-16T11:01:00.961Z,38.95
2023-02-16T11:03:36.071Z,37.98
2023-02-16T11:06:25.524Z,37.31
2023-02-16T11:08:59.288Z,36.78
2023-02-16T11:11:27.970Z,35.63
2023-02-16T11:14:18.702Z,36.55
2023-02-16T11:16:46.630Z,34.88
2023-02-16T11:19:22.441Z,35.45
2023-02-16T11:21:55.936Z,34.13
2023-02-16T11:24:35.158Z,34.29
2023-02-16T11:27:06.247Z,34.07
2023-02-16T11:29:34.124Z,34.99
2023-02-16T11:32:06.442Z,34.41
2023-02-16T11:34:40.276Z,34.58
2023-02-16T11:37:25.051Z,34.26
2023-02-16T11:39:55.418Z,33.74
2023-02-16T11:42:44.330Z,33.34
2023-02-16T11:45:22.678Z,33.64
2023-02-16T11:47:55.987Z,33.34
2023-02-16T11:50:35.684Z,33.29
2023-02-16T11:53:14.843Z,32.32
2023-02-16T11:55:44.501Z,33.78
2023-02-16T11:58:24.665Z,33.25
2023-02-16T12:01:19.052Z,34.67
2023-02-16T12:04:03.635Z,34.91
2023-02-16T12:06:49.678Z,33.89
2023-02-16T12:09:43.656Z,34.60
2023-02-16T12:12:17.851Z,35.25
2023-02-16T12:14:52.840Z,34.06
2023-02-16T12:17:19.352Z,35.13
2023-02-16T12:19:51.591Z,35.75
2023-02-16T12:22:32.580Z,37.05
2023-02-16T12:25:07.932Z,37.42
2023-02-16T12:27:51.027Z,36.13
2023-02-16T12:30:33.997Z,34.01
2023-02-16T12:33:15.556Z,35.43
2023-02-16T12:35:59.752Z,36.63
2023-02-16T12:38:51.993Z,35.30
2023-02-16T12:41:37.703Z,36.57
2023-02-16T12:44:10.962Z,36.29
2023-02-16T12:46:46.877Z,35.80
2023-02-16T12:49:24.410Z,36.36
2023-02-16T12:51:57.377Z,35.14
2023-02-16T12:54:57.524Z,35.89
2023-02-16T12:57:30.791Z,38.06
2023-02-16T13:00:04.337Z,38.19
2023-02-16T13:02:43.443Z,37.04
2023-02-16T13:05:32.673Z,37.49
2023-02-16T13:08:17.684Z,36.41
2023-02-16T13:11:03.835Z,35.96
2023-02-16T13:13:34.412Z,36.81
2023-02-16T13:16:08.304Z,36.31
2023-02-16T13:18:44.391Z,36.43
2023-02-16T13:21:42.500Z,36.72
2023-02-16T13:24:18.484Z,36.69
2023-02-16T13:26:57.345Z,37.09
2023-02-16T13:29:47.962Z,35.52
2023-02-16T13:32:41.503Z,34.56
2023-02-16T13:35:30.062Z,35.67
2023-02-16T13:38:15.729Z,35.56
2023-02-16T13:41:06.579Z,35.84
2023-02-16T13:43:45.380Z,35.55
2023-02-16T13:46:30.719Z,37.13
2023-02-16T13:48:58.752Z,37.25
2023-02-16T13:51:29.235Z,35.74
2023-02-16T13:54:02.202Z,36.76
2023-02-16T13:56:29.752Z,36.28
2023-02-16T13:59:20.456Z,36.54
2023-02-16T14:01:50.672Z,36.26
2023-02-16T14:04:23.251Z,36.89
2023-02-16T14:07:15.041Z,36.29
2023-02-16T14:09:41.534Z,35.92
2023-02-16T14:12:14.470Z,37.19
2023-02-16T14:14:47.945Z,37.60
2023-02-16T14:17:24.482Z,37.86
2023-02-16T14:19:50.980Z,38.77
2023-02-16T14:22:20.177Z,39.91
2023-02-16T14:24:55.784Z,39.47
2023-02-16T14:27:58.384Z,40.40
2023-02-16T14:30:34.051Z,41.14
2023-02-16T14:33:12.631Z,40.56
2023-02-16T14:35:41.857Z,41.63
2023-02-16T14:38:18.789Z,43.06
2023-02-16T14:40:55.421Z,42.99
2023-02-16T14:43:41.800Z,42.99
2023-02-16T14:46:11.631Z,43.05
2023-02-16T14:48:58.516Z,42.75
2023-02-16T14:51:40.453Z,43.27
2023-02-16T14:54:41.288Z,43.13
2023-02-16T14:57:16.671Z,44.68
2023-02-16T15:00:02.744Z,44.86
2023-02-16T15:02:34.044Z,45.06
2023-02-16T15:05:21.495Z,46.50
2023-02-16T15:07:52.269Z,47.27
2023-02-16T15:10:27.930Z,48.28
2023-02-16T15:12:57.923Z,49.14
2023-02-16T15:15:42.519Z,49.72
2023-02-16T15:18:21.283Z,49.46
2023-02-16T15:20:53.134Z,49.63
2023-02-16T15:23:26.448Z,50.79
2023-02-16T15:26:03.159Z,51.73
2023-02-16T15:28:35.920Z,51.07
2023-02-16T15:31:06.790Z,52.41
2023-02-16T15:33:43.913Z,52.86
2023-02-16T15:36:14.367Z,53.30
2023-02-16T15:38:54.025Z,53.15
2023-02-16T15:41:35.526Z,54.12
2023-02-16T15:44:05.054Z,52.99
2023-02-16T15:46:40.353Z,54.77
2023-02-16T15:49:15.120Z,56.17
2023-02-16T15:51:43.249Z,56.38
2023-02-16T15:54:16.575Z,57.62
2023-02-16T15:56:48.647Z,57.63
2023-02-16T15:59:35.185Z,56.38
2023-02-16T16:02:11.988Z,55.37
2023-02-16T16:04:47.375Z,57.78
2023-02-16T16:07:24.996Z,58.47
2023-02-16T16:09:52.298Z,56.13
2023-02-16T16:12:20.735Z,57.96
2023-02-16T16:14:56.120Z,58.65
2023-02-16T16:17:31.672Z,58.55
2023-02-16T16:20:19.106Z,57.46
2023-02-16T16:22:45.988Z,62.46
2023-02-16T16:25:32.663Z,61.62
2023-02-16T16:28:00.315Z,61.06
2023-02-16T16:30:29.722Z,64.55
2023-02-16T16:33:05.047Z,62.96
2023-02-16T16:35:41.313Z,62.12
2023-02-16T16:38:33.288Z,63.45
2023-02-16T16:41:03.653Z,63.81
2023-02-16T16:43:34.878Z,64.04
2023-02-16T16:46:07.516Z,65.46
2023-02-16T16:48:37.289Z,62.85
2023-02-16T16:51:14.552Z,63.40
2023-02-16T16:53:50.281Z,63.73
2023-02-16T16:56:16.926Z,66.21
2023-02-16T16:58:43.520Z,64.97
2023-02-16T17:01:12.933Z,65.89
2023-02-16T17:03:39.465Z,62.81
2023-02-16T17:06:06.963Z,65.73
2023-02-16T17:08:33.616Z,63.83
2023-02-16T17:11:01.311Z,65.16
2023-02-16T17:13:28.009Z,64.91
2023-02-16T17:16:00.650Z,64.00
2023-02-16T17:18:27.238Z,64.39
2023-02-16T17:20:54.028Z,65.43
2023-02-16T17:23:22.234Z,65.73
2023-02-16T17:25:49.499Z,66.51
2023-02-16T17:28:18.934Z,70.68
2023-02-16T17:30:46.126Z,70.17
2023-02-16T17:33:12.759Z,70.68
2023-02-16T17:35:41.839Z,70.37
2023-02-16T17:38:13.669Z,70.17
2023-02-16T17:40:41.346Z,69.97
2023-02-16T17:43:13.608Z,69.84
2023-02-16T17:45:40.627Z,71.14
2023-02-16T17:48:07.390Z,72.82
2023-02-16T17:50:34.250Z,74.90
2023-02-16T17:53:00.809Z,72.39
2023-02-16T17:55:27.609Z,75.29
2023-02-16T17:57:55.808Z,75.13
2023-02-16T18:00:22.851Z,75.31
2023-02-16T18:02:49.545Z,75.03
2023-02-16T18:05:16.284Z,79.21
2023-02-16T18:07:42.900Z,78.21
2023-02-16T18:10:35.181Z,79.63
2023-02-16T18:13:02.231Z,79.24
2023-02-16T18:15:31.626Z,80.38
2023-02-16T18:17:59.618Z,81.09
2023-02-16T18:20:26.743Z,81.10
2023-02-16T18:22:54.053Z,82.66
2023-02-16T18:25:20.930Z,83.67
2023-02-16T18:27:47.508Z,85.61
2023-02-16T18:30:16.250Z,86.26
2023-02-16T18:32:43.034Z,87.85
2023-02-16T18:35:10.789Z,88.50
2023-02-16T18:37:38.276Z,87.63
2023-02-16T18:40:08.546Z,87.24
2023-02-16T18:42:35.948Z,87.11
2023-02-16T18:45:03.082Z,87.60
2023-02-16T18:47:29.877Z,87.70
2023-02-16T18:49:56.499Z,85.85
2023-02-16T18:52:23.774Z,86.34
2023-02-16T18:54:50.708Z,86.98
2023-02-16T18:57:17.622Z,86.84
2023-02-16T18:59:44.244Z,86.42
2023-02-16T19:02:12.185Z,85.62
2023-02-16T19:04:38.972Z,85.55
2023-02-16T19:07:05.679Z,85.91
2023-02-16T19:09:33.653Z,86.00
2023-02-16T19:12:00.294Z,85.82
2023-02-16T19:14:26.896Z,86.22
2023-02-16T19:16:53.504Z,86.93
2023-02-16T19:19:20.307Z,86.52
2023-02-16T19:21:46.906Z,86.84
2023-02-16T19:24:13.738Z,86.61
2023-02-16T19:26:40.976Z,87.04
2023-02-16T19:29:07.630Z,86.81
2023-02-16T19:31:35.569Z,87.43
2023-02-16T19:34:02.487Z,87.18
2023-02-16T19:36:31.986Z,86.88
2023-02-16T19:38:58.845Z,87.54
2023-02-16T19:41:37.508Z,85.32
2023-02-16T19:44:04.427Z,86.30
2023-02-16T19:46:32.888Z,86.24
2023-02-16T19:49:00.303Z,86.48
2023-02-16T19:51:27.076Z,88.42
2023-02-16T19:53:54.250Z,87.74
2023-02-16T19:56:24.398Z,88.74
2023-02-16T19:58:51.235Z,88.52
2023-02-16T20:01:21.395Z,88.82
2023-02-16T20:03:49.584Z,87.89
2023-02-16T20:06:19.398Z,87.81
2023-02-16T20:08:47.216Z,88.36
2023-02-16T20:11:14.779Z,87.86
2023-02-16T20:13:41.448Z,88.22
2023-02-16T20:16:10.091Z,86.32
2023-02-16T20:18:37.776Z,86.85
2023-02-16T20:21:07.246Z,87.38
2023-02-16T20:23:34.593Z,88.11
2023-02-16T20:26:06.216Z,87.44
2023-02-16T20:28:33.939Z,88.04
2023-02-16T20:31:01.041Z,87.12
2023-02-16T20:33:28.059Z,86.79
2023-02-16T20:35:54.654Z,86.40
2023-02-16T20:38:21.270Z,86.89
2023-02-16T20:40:47.872Z,86.13
2023-02-16T20:43:15.646Z,86.35
2023-02-16T20:45:43.041Z,86.01
2023-02-16T20:48:10.544Z,87.81
2023-02-16T20:50:37.448Z,86.97
2023-02-16T20:53:04.499Z,86.25
2023-02-16T20:55:31.951Z,86.65
2023-02-16T20:58:00.022Z,89.44
2023-02-16T21:00:27.702Z,88.05
2023-02-16T21:02:54.476Z,90.28
2023-02-16T21:05:22.478Z,91.89
2023-02-16T21:07:49.986Z,92.09
2023-02-16T21:10:16.744Z,92.58
2023-02-16T21:12:43.386Z,92.61
2023-02-16T21:15:10.243Z,93.73
2023-02-16T21:17:37.418Z,93.95
2023-02-16T21:20:06.781Z,92.54
2023-02-16T21:22:33.584Z,92.08
2023-02-16T21:25:01.313Z,91.74
2023-02-16T21:27:27.940Z,90.71
2023-02-16T21:29:54.557Z,91.13
2023-02-16T21:32:21.145Z,90.89
2023-02-16T21:34:47.735Z,91.39
2023-02-16T21:37:14.366Z,88.97
2023-02-16T21:39:59.288Z,87.28
2023-02-16T21:42:25.892Z,87.11
2023-02-16T21:45:12.383Z,87.79
2023-02-16T21:48:02.537Z,87.18
2023-02-16T21:50:31.124Z,86.97
2023-02-16T21:52:59.779Z,87.25
2023-02-16T21:55:46.157Z,88.92
2023-02-16T21:58:12.727Z,90.08
2023-02-16T22:00:39.467Z,91.47
2023-02-16T22:03:06.347Z,91.31
2023-02-16T22:05:34.793Z,91.66
2023-02-16T22:08:02.190Z,92.50
2023-02-16T22:10:29.184Z,93.05
2023-02-16T22:12:57.245Z,93.25
2023-02-16T22:15:24.140Z,92.45
2023-02-16T22:17:50.660Z,91.01
2023-02-16T22:20:19.022Z,91.70
2023-02-16T22:22:45.642Z,91.23
2023-02-16T22:25:13.712Z,91.62
2023-02-16T22:27:40.820Z,91.92
2023-02-16T22:30:08.239Z,92.76
2023-02-16T22:32:34.945Z,92.87
2023-02-16T22:35:01.674Z,92.47
2023-02-16T22:37:28.315Z,93.00
2023-02-16T22:39:55.236Z,93.25
2023-02-16T22:42:22.657Z,92.97
2023-02-16T22:44:49.228Z,91.55
2023-02-16T22:47:15.804Z,90.10
2023-02-16T22:49:42.393Z,89.48
2023-02-16T22:52:11.633Z,88.71
2023-02-16T22:54:38.705Z,88.65
2023-02-16T22:57:07.189Z,88.77
2023-02-16T22:59:34.010Z,89.83
2023-02-16T23:02:00.636Z,89.19
2023-02-16T23:04:27.291Z,90.49
2023-02-16T23:06:53.881Z,91.73
2023-02-16T23:09:22.051Z,91.79
2023-02-16T23:11:49.517Z,91.45
2023-02-16T23:14:16.768Z,90.47
2023-02-16T23:16:45.431Z,89.43
2023-02-16T23:19:17.606Z,90.42
2023-02-16T23:21:44.854Z,91.28
2023-02-16T23:24:17.565Z,91.13
2023-02-16T23:26:44.467Z,91.31
2023-02-16T23:29:11.384Z,91.72
2023-02-16T23:31:40.455Z,93.00
2023-02-16T23:34:07.991Z,92.70
2023-02-16T23:36:36.480Z,91.61
2023-02-16T23:39:07.050Z,91.45
2023-02-16T23:41:33.767Z,91.69
2023-02-16T23:44:01.291Z,91.53
2023-02-16T23:46:28.812Z,91.95
2023-02-16T23:48:55.537Z,91.71
2023-02-16T23:51:22.480Z,91.99
2023-02-16T23:53:49.477Z,92.42
2023-02-16T23:56:21.926Z,92.43
2023-02-16T23:58:49.418Z,93.32
